Time;durP1;ratioP1;P1;durP2;ratioP2;P2;SDS_P1;SDS_P2;PMS_P1;PMS_P2;Temp;Humidity;BMP_temperature;BMP_pressure;BME280_temperature;BME280_humidity;BME280_pressure;Samples;Min_cycle;Max_cycle;Signal;HPM_P1;HPM_P2
2022/10/09 00:04:07;;;;;;;1.52;0.50;;;;;;;;;;10457077;28;20253;-69
2022/10/09 00:09:08;;;;;;;0.60;0.60;;;;;;;;;;10477429;28;20296;-69
2022/10/09 00:14:09;;;;;;;1.30;1.02;;;;;;;;;;10467707;28;20218;-70
2022/10/09 00:19:10;;;;;;;0.35;0.35;;;;;;;;;;10448992;28;20624;-70
2022/10/09 00:24:11;;;;;;;0.70;0.65;;;;;;;;;;10458705;28;20241;-70
2022/10/09 00:29:12;;;;;;;0.73;0.50;;;;;;;;;;10460821;28;20221;-70
2022/10/09 00:34:13;;;;;;;1.52;0.57;;;;;;;;;;10455850;28;20232;-70
2022/10/09 00:39:14;;;;;;;0.60;0.60;;;;;;;;;;10456700;28;20222;-69
2022/10/09 00:44:34;;;;;;;0.55;0.45;;;;;;;;;;10460053;28;20221;-70
2022/10/09 00:49:35;;;;;;;0.40;0.40;;;;;;;;;;10463299;28;20348;-70
2022/10/09 00:54:39;;;;;;;2.33;0.55;;;;;;;;;;10465682;28;20226;-70
2022/10/09 00:59:40;;;;;;;6.13;0.47;;;;;;;;;;10458527;28;20289;-70
2022/10/09 01:04:41;;;;;;;1.33;0.40;;;;;;;;;;10459062;28;20214;-70
2022/10/09 01:09:57;;;;;;;0.30;0.30;;;;;;;;;;10465466;28;20886;-70
2022/10/09 01:15:16;;;;;;;0.45;0.30;;;;;;;;;;10456642;28;20222;-69
2022/10/09 01:20:24;;;;;;;0.55;0.35;;;;;;;;;;10455860;28;20275;-70
2022/10/09 01:25:33;;;;;;;1.15;0.30;;;;;;;;;;10455351;28;20679;-70
2022/10/09 01:30:34;;;;;;;3.65;0.43;;;;;;;;;;10456348;28;20218;-70
2022/10/09 01:35:36;;;;;;;3.03;0.50;;;;;;;;;;10453428;28;20217;-70
2022/10/09 01:40:37;;;;;;;0.68;0.35;;;;;;;;;;10456667;28;20230;-70
2022/10/09 01:45:40;;;;;;;0.75;0.43;;;;;;;;;;10455554;28;20306;-70
2022/10/09 01:50:43;;;;;;;0.52;0.30;;;;;;;;;;10455932;28;20216;-70
2022/10/09 01:55:45;;;;;;;1.27;0.40;;;;;;;;;;10457640;28;20213;-70
2022/10/09 02:00:52;;;;;;;0.60;0.60;;;;;;;;;;10451560;28;20317;-70
2022/10/09 02:05:54;;;;;;;0.40;0.40;;;;;;;;;;10455092;28;20364;-70
2022/10/09 02:10:57;;;;;;;1.35;0.70;;;;;;;;;;10458255;28;20271;-70
2022/10/09 02:16:10;;;;;;;4.53;0.40;;;;;;;;;;10459596;28;20573;-70
2022/10/09 02:21:22;;;;;;;0.30;0.30;;;;;;;;;;10459263;28;20249;-70
2022/10/09 02:26:24;;;;;;;0.32;0.32;;;;;;;;;;10453994;28;20222;-70
2022/10/09 02:31:26;;;;;;;4.95;0.40;;;;;;;;;;10454843;28;20224;-70
2022/10/09 02:36:29;;;;;;;0.85;0.38;;;;;;;;;;10452294;28;20585;-70
2022/10/09 02:41:31;;;;;;;3.83;0.60;;;;;;;;;;10446356;28;20296;-70
2022/10/09 02:46:33;;;;;;;1.83;0.30;;;;;;;;;;10453142;28;20329;-70
2022/10/09 02:51:34;;;;;;;0.30;0.30;;;;;;;;;;10452279;28;20574;-69
2022/10/09 02:56:35;;;;;;;0.50;0.50;;;;;;;;;;10450366;28;20713;-70
2022/10/09 03:01:36;;;;;;;1.48;0.50;;;;;;;;;;10453453;28;20249;-71
2022/10/09 03:06:37;;;;;;;1.27;0.38;;;;;;;;;;10465733;28;20214;-70
2022/10/09 03:11:38;;;;;;;0.20;0.20;;;;;;;;;;10450924;28;20225;-70
2022/10/09 03:16:40;;;;;;;0.30;0.30;;;;;;;;;;10456583;28;20219;-70
2022/10/09 03:21:41;;;;;;;0.32;0.32;;;;;;;;;;10457493;28;20250;-68
2022/10/09 03:26:42;;;;;;;0.30;0.30;;;;;;;;;;10455789;28;20279;-70
2022/10/09 03:31:43;;;;;;;2.50;0.35;;;;;;;;;;10459764;28;20309;-70
2022/10/09 03:36:44;;;;;;;1.05;0.40;;;;;;;;;;10456239;28;20230;-69
2022/10/09 03:41:45;;;;;;;0.38;0.38;;;;;;;;;;10452426;28;20234;-69
2022/10/09 03:46:46;;;;;;;0.40;0.40;;;;;;;;;;10462955;28;20302;-70
2022/10/09 03:51:47;;;;;;;0.45;0.30;;;;;;;;;;10460014;28;20227;-75
2022/10/09 03:56:48;;;;;;;0.30;0.30;;;;;;;;;;10453195;28;20214;-70
2022/10/09 04:01:49;;;;;;;0.32;0.32;;;;;;;;;;10458368;28;20317;-70
2022/10/09 04:06:50;;;;;;;0.60;0.32;;;;;;;;;;10458441;28;20222;-70
2022/10/09 04:11:52;;;;;;;2.47;0.30;;;;;;;;;;10464072;28;20221;-70
2022/10/09 04:16:53;;;;;;;2.67;0.40;;;;;;;;;;10468588;28;20214;-70
2022/10/09 04:21:54;;;;;;;1.70;0.38;;;;;;;;;;10463563;28;20222;-70
2022/10/09 04:26:55;;;;;;;0.30;0.30;;;;;;;;;;10459827;28;21019;-71
2022/10/09 04:31:56;;;;;;;0.40;0.40;;;;;;;;;;10458568;28;20227;-71
2022/10/09 04:36:58;;;;;;;0.50;0.50;;;;;;;;;;10459699;28;20214;-71
2022/10/09 04:41:59;;;;;;;5.82;0.60;;;;;;;;;;10459016;28;20235;-71
2022/10/09 04:47:00;;;;;;;1.05;0.50;;;;;;;;;;10457993;28;20330;-71
2022/10/09 04:52:01;;;;;;;2.45;0.52;;;;;;;;;;10454774;28;20225;-72
2022/10/09 04:57:02;;;;;;;0.55;0.55;;;;;;;;;;10457233;28;20215;-69
2022/10/09 05:02:03;;;;;;;0.73;0.55;;;;;;;;;;10459532;28;20784;-69
2022/10/09 05:07:04;;;;;;;2.55;0.50;;;;;;;;;;10459818;28;20226;-69
2022/10/09 05:12:05;;;;;;;2.83;0.85;;;;;;;;;;10463906;28;20230;-71
2022/10/09 05:17:07;;;;;;;0.75;0.52;;;;;;;;;;10461823;28;20219;-71
2022/10/09 05:22:08;;;;;;;0.60;0.60;;;;;;;;;;10457230;28;20210;-71
2022/10/09 05:27:09;;;;;;;0.60;0.60;;;;;;;;;;10459349;28;20213;-71
2022/10/09 05:32:10;;;;;;;1.45;0.60;;;;;;;;;;10460566;28;20717;-72
2022/10/09 05:37:11;;;;;;;0.52;0.52;;;;;;;;;;10454369;28;20691;-69
2022/10/09 05:42:12;;;;;;;1.20;0.90;;;;;;;;;;10458168;28;20234;-70
2022/10/09 05:47:16;;;;;;;0.60;0.60;;;;;;;;;;10459369;28;20239;-69
2022/10/09 05:52:17;;;;;;;1.35;0.63;;;;;;;;;;10459703;28;20716;-69
2022/10/09 05:57:19;;;;;;;4.90;1.60;;;;;;;;;;10461485;28;20206;-70
2022/10/09 06:02:20;;;;;;;4.20;1.00;;;;;;;;;;10456281;28;20218;-70
2022/10/09 06:07:21;;;;;;;1.20;0.80;;;;;;;;;;10454698;28;20306;-69
2022/10/09 06:12:22;;;;;;;1.42;0.95;;;;;;;;;;10460971;28;20276;-71
2022/10/09 06:17:23;;;;;;;1.85;0.98;;;;;;;;;;10464275;28;20219;-71
2022/10/09 06:22:24;;;;;;;1.08;0.57;;;;;;;;;;10449647;28;20206;-69
2022/10/09 06:27:25;;;;;;;1.15;0.55;;;;;;;;;;10446989;28;20218;-70
2022/10/09 06:32:27;;;;;;;0.40;0.40;;;;;;;;;;10453103;28;20222;-70
2022/10/09 06:37:28;;;;;;;3.65;0.60;;;;;;;;;;10454228;28;20257;-69
2022/10/09 06:42:30;;;;;;;0.30;0.30;;;;;;;;;;10449835;28;20227;-70
2022/10/09 06:47:32;;;;;;;0.80;0.77;;;;;;;;;;10449955;28;20852;-70
2022/10/09 06:52:33;;;;;;;0.93;0.70;;;;;;;;;;10449589;28;20297;-71
2022/10/09 06:57:34;;;;;;;0.75;0.50;;;;;;;;;;10453916;28;20654;-71
2022/10/09 07:02:36;;;;;;;1.50;0.60;;;;;;;;;;10457812;28;20293;-70
2022/10/09 07:07:40;;;;;;;0.65;0.65;;;;;;;;;;10451995;28;20216;-71
2022/10/09 07:12:41;;;;;;;0.60;0.60;;;;;;;;;;10448194;28;20222;-71
2022/10/09 07:17:42;;;;;;;4.57;0.88;;;;;;;;;;10452764;28;20624;-71
2022/10/09 07:22:44;;;;;;;1.65;0.70;;;;;;;;;;10451885;28;20584;-71
2022/10/09 07:27:45;;;;;;;1.60;0.73;;;;;;;;;;10452048;28;20597;-71
2022/10/09 07:32:46;;;;;;;2.80;0.80;;;;;;;;;;10448508;28;20214;-71
2022/10/09 07:37:47;;;;;;;1.58;0.95;;;;;;;;;;10453630;28;20332;-71
2022/10/09 07:42:48;;;;;;;3.40;0.70;;;;;;;;;;10456436;28;20729;-71
2022/10/09 07:47:49;;;;;;;1.48;0.95;;;;;;;;;;10454761;28;20335;-71
2022/10/09 07:52:51;;;;;;;2.70;1.08;;;;;;;;;;10459613;28;20225;-71
2022/10/09 07:57:52;;;;;;;2.78;0.85;;;;;;;;;;10452988;28;20609;-71
2022/10/09 08:02:53;;;;;;;1.30;1.23;;;;;;;;;;10461155;28;20218;-71
2022/10/09 08:07:54;;;;;;;1.67;1.38;;;;;;;;;;10460047;28;20213;-71
2022/10/09 08:12:55;;;;;;;3.00;1.25;;;;;;;;;;10459527;28;20902;-71
2022/10/09 08:17:56;;;;;;;2.03;1.13;;;;;;;;;;10465192;28;20226;-71
2022/10/09 08:22:57;;;;;;;2.72;0.85;;;;;;;;;;10461797;28;20222;-71
2022/10/09 08:27:58;;;;;;;1.10;0.88;;;;;;;;;;10459786;28;20219;-71
2022/10/09 08:32:59;;;;;;;2.88;0.80;;;;;;;;;;10461724;28;20229;-71
2022/10/09 08:38:01;;;;;;;1.67;1.00;;;;;;;;;;10461760;28;20337;-71
2022/10/09 08:43:06;;;;;;;5.82;1.00;;;;;;;;;;10458379;28;20230;-71
2022/10/09 08:48:21;;;;;;;1.02;0.68;;;;;;;;;;10461430;28;20222;-70
2022/10/09 08:53:34;;;;;;;1.95;0.60;;;;;;;;;;10460749;28;20706;-71
2022/10/09 08:58:37;;;;;;;2.88;0.80;;;;;;;;;;10460543;28;20238;-70
2022/10/09 09:03:49;;;;;;;3.17;0.52;;;;;;;;;;10462581;28;20214;-71
2022/10/09 09:08:53;;;;;;;2.30;0.68;;;;;;;;;;10459654;28;20236;-71
2022/10/09 09:14:11;;;;;;;3.65;0.88;;;;;;;;;;10454942;28;20241;-71
2022/10/09 09:19:19;;;;;;;2.90;0.40;;;;;;;;;;10460024;28;20230;-71
2022/10/09 09:24:23;;;;;;;1.92;0.47;;;;;;;;;;10460905;28;20221;-71
2022/10/09 09:29:24;;;;;;;1.48;0.30;;;;;;;;;;10458245;28;20214;-70
2022/10/09 09:34:36;;;;;;;3.30;0.40;;;;;;;;;;10457712;28;22088;-70
2022/10/09 09:39:38;;;;;;;4.00;0.47;;;;;;;;;;10452101;28;20621;-71
2022/10/09 09:44:40;;;;;;;3.55;0.90;;;;;;;;;;10451524;28;20238;-70
2022/10/09 09:49:53;;;;;;;2.28;0.50;;;;;;;;;;10452195;28;20214;-71
2022/10/09 09:54:55;;;;;;;3.60;0.52;;;;;;;;;;10458694;28;20218;-70
2022/10/09 10:00:06;;;;;;;4.20;0.63;;;;;;;;;;10452746;28;20692;-70
2022/10/09 10:05:25;;;;;;;3.33;0.47;;;;;;;;;;10458932;28;20210;-70
2022/10/09 10:10:26;;;;;;;3.15;0.45;;;;;;;;;;10453784;28;20297;-68
2022/10/09 10:15:29;;;;;;;2.72;0.60;;;;;;;;;;10454203;28;20360;-70
2022/10/09 10:20:31;;;;;;;3.08;0.80;;;;;;;;;;10455132;28;21061;-70
2022/10/09 10:25:33;;;;;;;6.63;0.73;;;;;;;;;;10450106;28;20214;-70
2022/10/09 10:30:36;;;;;;;1.88;0.65;;;;;;;;;;10450546;28;20283;-70
2022/10/09 10:35:40;;;;;;;1.20;0.55;;;;;;;;;;10449651;28;20226;-70
2022/10/09 10:40:48;;;;;;;6.03;0.68;;;;;;;;;;10451756;28;20230;-71
2022/10/09 10:45:57;;;;;;;2.53;0.57;;;;;;;;;;10450680;28;20225;-70
2022/10/09 10:51:17;;;;;;;2.67;0.40;;;;;;;;;;10448271;28;20296;-69
2022/10/09 10:56:29;;;;;;;1.75;0.50;;;;;;;;;;10448382;28;20229;-67
2022/10/09 11:01:39;;;;;;;3.17;0.40;;;;;;;;;;10443482;28;20248;-71
2022/10/09 11:06:49;;;;;;;1.60;0.63;;;;;;;;;;10430681;28;20215;-69
2022/10/09 11:11:51;;;;;;;3.20;0.43;;;;;;;;;;10431234;28;20280;-70
2022/10/09 11:16:58;;;;;;;2.92;0.30;;;;;;;;;;10458825;28;20230;-69
2022/10/09 11:22:02;;;;;;;1.30;0.22;;;;;;;;;;10442815;28;20233;-70
2022/10/09 11:27:09;;;;;;;0.80;0.30;;;;;;;;;;10451721;28;20940;-69
2022/10/09 11:32:12;;;;;;;2.13;0.40;;;;;;;;;;10467206;28;20217;-69
2022/10/09 11:37:18;;;;;;;1.02;0.40;;;;;;;;;;10446125;28;20341;-69
2022/10/09 11:42:21;;;;;;;1.48;0.30;;;;;;;;;;10465072;28;20233;-70
2022/10/09 11:47:22;;;;;;;0.98;0.40;;;;;;;;;;10459159;28;20217;-68
2022/10/09 11:52:33;;;;;;;1.23;0.40;;;;;;;;;;10460385;28;20264;-69
2022/10/09 11:57:34;;;;;;;1.50;0.40;;;;;;;;;;10461791;28;20234;-68
2022/10/09 12:02:36;;;;;;;1.75;0.50;;;;;;;;;;10460713;28;20206;-69
2022/10/09 12:07:38;;;;;;;0.73;0.30;;;;;;;;;;10460805;28;20218;-68
2022/10/09 12:12:39;;;;;;;0.35;0.30;;;;;;;;;;10463759;28;20254;-68
2022/10/09 12:17:48;;;;;;;0.30;0.20;;;;;;;;;;10462321;28;20669;-68
2022/10/09 12:22:54;;;;;;;1.88;0.30;;;;;;;;;;10457370;28;20214;-69
2022/10/09 12:27:56;;;;;;;0.85;0.32;;;;;;;;;;10465761;28;20222;-70
2022/10/09 12:33:07;;;;;;;1.25;0.50;;;;;;;;;;10461603;28;20705;-69
2022/10/09 12:38:24;;;;;;;1.73;0.30;;;;;;;;;;10457811;28;20284;-69
2022/10/09 12:43:26;;;;;;;0.35;0.20;;;;;;;;;;10453658;28;20232;-67
2022/10/09 12:48:27;;;;;;;0.73;0.40;;;;;;;;;;10459611;28;20215;-69
2022/10/09 12:53:29;;;;;;;0.85;0.20;;;;;;;;;;10454718;28;20308;-68
2022/10/09 12:58:30;;;;;;;0.35;0.20;;;;;;;;;;10453476;28;20337;-69
2022/10/09 13:03:38;;;;;;;0.30;0.30;;;;;;;;;;10451245;28;20210;-70
2022/10/09 13:08:40;;;;;;;3.17;0.40;;;;;;;;;;10450586;28;20229;-70
2022/10/09 13:13:41;;;;;;;1.45;0.30;;;;;;;;;;10450130;28;20229;-67
2022/10/09 13:18:42;;;;;;;2.13;0.40;;;;;;;;;;10449957;28;20885;-67
2022/10/09 13:23:44;;;;;;;0.50;0.25;;;;;;;;;;10452936;28;20221;-65
2022/10/09 13:28:46;;;;;;;0.15;0.15;;;;;;;;;;10453963;28;20352;-64
2022/10/09 13:33:47;;;;;;;0.32;0.30;;;;;;;;;;10449792;28;20241;-66
2022/10/09 13:38:48;;;;;;;1.42;0.22;;;;;;;;;;10453946;28;20787;-69
2022/10/09 13:43:50;;;;;;;0.30;0.22;;;;;;;;;;10435366;28;20299;-69
2022/10/09 13:48:51;;;;;;;1.45;0.20;;;;;;;;;;10449144;28;20621;-70
2022/10/09 13:53:53;;;;;;;0.77;0.20;;;;;;;;;;10448406;28;20205;-70
2022/10/09 13:58:54;;;;;;;0.93;0.22;;;;;;;;;;10444746;28;20323;-70
2022/10/09 14:03:55;;;;;;;0.82;0.20;;;;;;;;;;10444639;28;20213;-70
2022/10/09 14:08:56;;;;;;;3.00;0.20;;;;;;;;;;10444896;28;20218;-69
2022/10/09 14:13:58;;;;;;;1.98;0.30;;;;;;;;;;10446603;28;20930;-66
2022/10/09 14:19:00;;;;;;;1.02;0.32;;;;;;;;;;10447650;28;20230;-68
2022/10/09 14:24:02;;;;;;;2.50;0.35;;;;;;;;;;10446462;28;20210;-68
2022/10/09 14:29:03;;;;;;;1.08;0.20;;;;;;;;;;10446549;28;20230;-68
2022/10/09 14:34:04;;;;;;;1.25;0.40;;;;;;;;;;10442068;28;21235;-69
2022/10/09 14:39:05;;;;;;;2.95;0.20;;;;;;;;;;10448466;28;20257;-70
2022/10/09 14:44:08;;;;;;;2.00;0.30;;;;;;;;;;10444291;28;20750;-70
2022/10/09 14:49:10;;;;;;;0.63;0.30;;;;;;;;;;10446123;28;20276;-70
2022/10/09 14:54:11;;;;;;;2.05;0.55;;;;;;;;;;10451352;28;20689;-67
2022/10/09 14:59:12;;;;;;;1.10;0.20;;;;;;;;;;10450073;28;20831;-68
2022/10/09 15:04:14;;;;;;;1.90;0.30;;;;;;;;;;10446861;28;20210;-69
2022/10/09 15:09:15;;;;;;;1.13;0.25;;;;;;;;;;10447656;28;20233;-68
2022/10/09 15:14:16;;;;;;;1.55;0.28;;;;;;;;;;10448870;28;20226;-69
2022/10/09 15:19:17;;;;;;;4.55;0.20;;;;;;;;;;10447925;28;20655;-67
2022/10/09 15:24:18;;;;;;;2.10;0.50;;;;;;;;;;10447676;28;20257;-69
2022/10/09 15:29:19;;;;;;;0.70;0.30;;;;;;;;;;10448610;28;20229;-68
2022/10/09 15:34:20;;;;;;;3.42;0.30;;;;;;;;;;10445284;28;20222;-68
2022/10/09 15:39:22;;;;;;;0.63;0.40;;;;;;;;;;10448938;28;20241;-68
2022/10/09 15:44:23;;;;;;;2.10;0.35;;;;;;;;;;10443220;28;20253;-69
2022/10/09 15:49:24;;;;;;;1.95;0.43;;;;;;;;;;10447706;28;20720;-69
2022/10/09 15:54:26;;;;;;;2.53;0.38;;;;;;;;;;10446734;28;20231;-68
2022/10/09 15:59:28;;;;;;;2.70;0.60;;;;;;;;;;10446960;28;23422;-68
2022/10/09 16:04:29;;;;;;;0.47;0.47;;;;;;;;;;10446076;28;20217;-69
2022/10/09 16:09:32;;;;;;;0.45;0.40;;;;;;;;;;10456032;28;20249;-68
2022/10/09 16:14:34;;;;;;;2.75;0.40;;;;;;;;;;10450935;28;20693;-69
2022/10/09 16:19:35;;;;;;;0.50;0.40;;;;;;;;;;10455797;28;20222;-68
2022/10/09 16:24:36;;;;;;;0.57;0.40;;;;;;;;;;10461086;28;20218;-67
2022/10/09 16:29:37;;;;;;;0.43;0.40;;;;;;;;;;10443751;28;20238;-67
2022/10/09 16:34:38;;;;;;;1.10;0.73;;;;;;;;;;10456289;28;20218;-67
2022/10/09 16:39:39;;;;;;;1.83;1.73;;;;;;;;;;10455134;28;20223;-66
2022/10/09 16:44:41;;;;;;;3.97;3.70;;;;;;;;;;10449933;28;20304;-66
2022/10/09 16:49:42;;;;;;;4.07;3.67;;;;;;;;;;10452338;28;20698;-66
2022/10/09 16:54:43;;;;;;;8.85;5.85;;;;;;;;;;10437593;28;20214;-68
2022/10/09 16:59:44;;;;;;;5.88;4.18;;;;;;;;;;10457978;28;20222;-68
2022/10/09 17:04:46;;;;;;;3.00;2.67;;;;;;;;;;10459083;28;20225;-69
2022/10/09 17:09:47;;;;;;;9.32;6.43;;;;;;;;;;10450500;28;20218;-69
2022/10/09 17:14:48;;;;;;;3.63;3.00;;;;;;;;;;10441094;28;20221;-69
2022/10/09 17:19:49;;;;;;;3.92;3.00;;;;;;;;;;10461648;28;20222;-69
2022/10/09 17:24:50;;;;;;;3.80;3.40;;;;;;;;;;10464087;28;20210;-69
2022/10/09 17:29:52;;;;;;;4.93;1.50;;;;;;;;;;10463243;28;20215;-70
2022/10/09 17:34:53;;;;;;;1.08;1.08;;;;;;;;;;10463290;28;20280;-68
2022/10/09 17:39:54;;;;;;;0.60;0.60;;;;;;;;;;10463018;28;20301;-68
2022/10/09 17:44:55;;;;;;;0.70;0.70;;;;;;;;;;10463142;28;20676;-68
2022/10/09 17:49:56;;;;;;;1.65;1.60;;;;;;;;;;10460371;28;20225;-70
2022/10/09 17:54:57;;;;;;;1.73;1.50;;;;;;;;;;10458833;28;20237;-70
2022/10/09 17:59:58;;;;;;;1.25;1.25;;;;;;;;;;10456522;28;20614;-71
2022/10/09 18:04:59;;;;;;;3.03;0.70;;;;;;;;;;10457352;28;20685;-69
2022/10/09 18:10:00;;;;;;;2.42;0.65;;;;;;;;;;10457900;28;20214;-69
2022/10/09 18:15:02;;;;;;;1.45;0.82;;;;;;;;;;10452944;28;20233;-70
2022/10/09 18:20:03;;;;;;;1.67;1.20;;;;;;;;;;10450550;28;20666;-69
2022/10/09 18:25:05;;;;;;;3.03;0.85;;;;;;;;;;10449074;28;20971;-70
2022/10/09 18:30:06;;;;;;;1.85;1.42;;;;;;;;;;10453992;28;20214;-69
2022/10/09 18:35:08;;;;;;;0.77;0.75;;;;;;;;;;10456029;28;20186;-69
2022/10/09 18:40:09;;;;;;;3.53;2.65;;;;;;;;;;10452122;28;20746;-69
2022/10/09 18:45:13;;;;;;;1.77;1.75;;;;;;;;;;10452181;28;20660;-70
2022/10/09 18:50:14;;;;;;;1.17;1.17;;;;;;;;;;10453844;28;20182;-70
2022/10/09 18:55:16;;;;;;;2.85;2.20;;;;;;;;;;10449201;28;20709;-70
2022/10/09 19:00:17;;;;;;;1.65;1.55;;;;;;;;;;10450692;28;20222;-67
2022/10/09 19:05:19;;;;;;;3.20;1.70;;;;;;;;;;10451520;28;20302;-71
2022/10/09 19:10:20;;;;;;;5.03;1.50;;;;;;;;;;10452288;28;20194;-69
2022/10/09 19:15:21;;;;;;;4.20;0.90;;;;;;;;;;10448402;28;20217;-70
2022/10/09 19:20:22;;;;;;;1.85;1.08;;;;;;;;;;10457462;28;20229;-70
2022/10/09 19:25:23;;;;;;;1.15;1.15;;;;;;;;;;10455696;28;20229;-68
2022/10/09 19:30:24;;;;;;;1.27;1.00;;;;;;;;;;10451599;28;20211;-70
2022/10/09 19:35:25;;;;;;;0.60;0.55;;;;;;;;;;10453249;28;20245;-69
2022/10/09 19:40:27;;;;;;;2.08;0.82;;;;;;;;;;10454075;28;20708;-68
2022/10/09 19:45:28;;;;;;;1.15;0.70;;;;;;;;;;10457648;28;20229;-69
2022/10/09 19:50:29;;;;;;;1.75;1.08;;;;;;;;;;10460062;28;20234;-69
2022/10/09 19:55:32;;;;;;;1.60;1.50;;;;;;;;;;10463249;28;20225;-70
2022/10/09 20:00:33;;;;;;;1.05;0.88;;;;;;;;;;10461662;28;20225;-70
2022/10/09 20:05:34;;;;;;;0.73;0.70;;;;;;;;;;10464574;28;20338;-68
2022/10/09 20:10:36;;;;;;;0.70;0.70;;;;;;;;;;10442402;28;20317;-68
2022/10/09 20:15:41;;;;;;;2.13;0.90;;;;;;;;;;10465474;28;20230;-69
2022/10/09 20:20:46;;;;;;;0.80;0.65;;;;;;;;;;10465171;28;20229;-68
2022/10/09 20:25:47;;;;;;;6.65;0.50;;;;;;;;;;10466444;28;20220;-68
2022/10/09 20:30:54;;;;;;;3.65;0.68;;;;;;;;;;10466096;28;20702;-69
2022/10/09 20:35:56;;;;;;;3.35;0.77;;;;;;;;;;10476683;28;20973;-69
2022/10/09 20:41:06;;;;;;;0.93;0.93;;;;;;;;;;10459027;28;20860;-68
2022/10/09 20:46:12;;;;;;;2.05;0.50;;;;;;;;;;10464043;28;20288;-68
2022/10/09 20:51:13;;;;;;;1.42;0.60;;;;;;;;;;10461220;28;20229;-68
2022/10/09 20:56:14;;;;;;;1.55;0.70;;;;;;;;;;10459365;28;20223;-68
2022/10/09 21:01:16;;;;;;;0.50;0.50;;;;;;;;;;10460202;28;20234;-68
2022/10/09 21:06:19;;;;;;;0.80;0.68;;;;;;;;;;10459077;28;20253;-68
2022/10/09 21:11:20;;;;;;;0.68;0.47;;;;;;;;;;10461404;28;20408;-68
2022/10/09 21:16:23;;;;;;;0.80;0.65;;;;;;;;;;10457731;28;20297;-68
2022/10/09 21:21:24;;;;;;;0.43;0.40;;;;;;;;;;10455412;28;20225;-68
2022/10/09 21:26:25;;;;;;;1.08;0.52;;;;;;;;;;10459809;28;20222;-68
2022/10/09 21:31:27;;;;;;;1.20;0.40;;;;;;;;;;10460434;28;20546;-68
2022/10/09 21:36:28;;;;;;;3.40;0.55;;;;;;;;;;10461636;28;20238;-68
2022/10/09 21:41:30;;;;;;;1.05;0.50;;;;;;;;;;10459649;28;20233;-68
2022/10/09 21:46:31;;;;;;;0.68;0.50;;;;;;;;;;10460320;28;20705;-69
2022/10/09 21:51:32;;;;;;;4.65;1.30;;;;;;;;;;10460518;28;20277;-69
2022/10/09 21:56:33;;;;;;;2.58;0.50;;;;;;;;;;10464819;28;20222;-68
2022/10/09 22:01:34;;;;;;;2.25;0.57;;;;;;;;;;10461016;28;20226;-69
2022/10/09 22:06:35;;;;;;;2.88;0.60;;;;;;;;;;10460489;28;20644;-69
2022/10/09 22:11:36;;;;;;;2.17;0.80;;;;;;;;;;10461195;28;20214;-69
2022/10/09 22:16:38;;;;;;;0.40;0.40;;;;;;;;;;10463195;28;20225;-69
2022/10/09 22:21:39;;;;;;;0.82;0.40;;;;;;;;;;10462452;28;20226;-69
2022/10/09 22:26:40;;;;;;;1.20;0.57;;;;;;;;;;10463989;28;20218;-69
2022/10/09 22:31:41;;;;;;;2.58;0.52;;;;;;;;;;10463222;28;20222;-69
2022/10/09 22:36:42;;;;;;;1.15;0.70;;;;;;;;;;10463446;28;20218;-68
2022/10/09 22:41:43;;;;;;;2.17;0.40;;;;;;;;;;10462029;28;20226;-68
2022/10/09 22:46:45;;;;;;;2.25;0.50;;;;;;;;;;10444541;28;20225;-69
2022/10/09 22:51:46;;;;;;;0.90;0.43;;;;;;;;;;10443528;28;20214;-68
2022/10/09 22:56:47;;;;;;;0.60;0.50;;;;;;;;;;10452595;28;20264;-68
2022/10/09 23:01:53;;;;;;;4.35;1.02;;;;;;;;;;10460576;28;20222;-69
2022/10/09 23:06:55;;;;;;;2.83;1.02;;;;;;;;;;10459750;28;20580;-69
2022/10/09 23:11:57;;;;;;;4.45;0.50;;;;;;;;;;10457355;28;20311;-69
2022/10/09 23:16:58;;;;;;;1.88;0.60;;;;;;;;;;10457451;28;20210;-68
2022/10/09 23:21:59;;;;;;;1.55;1.23;;;;;;;;;;10455592;28;20233;-69
2022/10/09 23:27:00;;;;;;;3.03;0.73;;;;;;;;;;10458239;28;20213;-69
2022/10/09 23:32:02;;;;;;;0.82;0.82;;;;;;;;;;10458373;28;20221;-69
2022/10/09 23:37:03;;;;;;;2.40;0.70;;;;;;;;;;10459270;28;20214;-69
2022/10/09 23:42:04;;;;;;;1.45;0.50;;;;;;;;;;10456462;28;20222;-68
2022/10/09 23:47:05;;;;;;;1.60;0.77;;;;;;;;;;10453278;28;20214;-69
2022/10/09 23:52:06;;;;;;;0.47;0.47;;;;;;;;;;10456186;28;20221;-69
2022/10/09 23:57:07;;;;;;;2.72;0.77;;;;;;;;;;10453394;28;20230;-68
